Superstar Express — 3FFX9 — position and weather

sailwx.info

Track history (hours):
 
Tides and Currents Weather Stations Pressure Air Temp Water Temp Dewpoint Dewpoint Depression Visibility Wind Speed Wind Dir Waves Ship Positions

Superstar Express

Operator: P & O Irish Sea

Last reported at 2018-May-09 01:18 UTC. Time now 2018-May-23 05:26 UTC.
Position N 34°26' E 133°55'.
Warning: this ship's position is 14 days out of date.

Length 183 m; draft 10.8 m.

Type: Ship. MMSI: 351360000.

Date/timePositionNaut miles runAvg speedWind from/ knotsBaromVisibWave heightAir tempDewpointWater temp
2018-May-09 01:18N 34°26' E 133°55'15 8.1
2018-May-08 23:30N 34°25' E 134°13'5 9.8
2018-May-08 23:00N 34°24' E 134°19'5 9.7
2018-May-08 22:30N 34°26' E 134°24'510.0
2018-May-08 22:00N 34°28' E 134°30'511.0
2018-May-08 21:30N 34°30' E 134°36'611.4
2018-May-08 21:00N 34°32' E 134°43'511.0
2018-May-08 20:30N 34°34' E 134°49'611.4
2018-May-08 20:00N 34°36' E 134°55'510.7
2018-May-08 19:30N 34°37' E 135°02'510.0
2018-May-08 19:00N 34°35' E 135°07'2 4.8
2018-May-08 18:30N 34°32' E 135°07'510.2
2018-May-08 18:01N 34°28' E 135°05'611.8
2018-May-08 17:30N 34°22' E 135°02'612.1
2018-May-08 17:00N 34°17' E 134°59'611.7
2018-May-08 16:30N 34°11' E 135°01'3 6.3
2018-May-08 16:00N 34°08' E 134°59'5 9.8
2018-May-08 15:30N 34°03' E 134°59'511.0
2018-May-08 15:00N 33°58' E 134°59'611.2
2018-May-08 14:30N 33°52' E 134°59'610.6
2018-May-08 13:59N 33°47' E 134°60'610.9
2018-May-08 13:29N 33°42' E 135°04'610.7
2018-May-08 12:56N 33°37' E 135°07'611.5
2018-May-08 12:27N 33°32' E 135°11'611.8
2018-May-08 11:55N 33°27' E 135°14'  
2018-May-06 00:22N 31°60' E 134°44'278 6.7
2018-May-04 07:08N 34°17' E 139°33'1 7.4
2018-May-04 06:59N 34°18' E 139°35'44 6.7
2018-May-04 00:31N 34°41' E 140°19'0 1.1
2018-May-04 00:30N 34°41' E 140°19'  
Track history (hours):
 
Tides and Currents Weather Stations Pressure Air Temp Water Temp Dewpoint Dewpoint Depression Visibility Wind Speed Wind Dir Waves Ship Positions

Superstar Express

Operator: P & O Irish Sea

Last reported at 2018-May-09 01:18 UTC. Time now 2018-May-23 05:26 UTC.
Position N 34°26' E 133°55'.
Warning: this ship's position is 14 days out of date.

Length 183 m; draft 10.8 m.

Type: Ship. MMSI: 351360000.

Date/timePositionNaut miles runAvg speedWind from/ knotsBaromVisibWave heightAir tempDewpointWater temp
2018-May-09 01:18N 34°26' E 133°55'15 8.1
2018-May-08 23:30N 34°25' E 134°13'5 9.8
2018-May-08 23:00N 34°24' E 134°19'5 9.7
2018-May-08 22:30N 34°26' E 134°24'510.0
2018-May-08 22:00N 34°28' E 134°30'511.0
2018-May-08 21:30N 34°30' E 134°36'611.4
2018-May-08 21:00N 34°32' E 134°43'511.0
2018-May-08 20:30N 34°34' E 134°49'611.4
2018-May-08 20:00N 34°36' E 134°55'510.7
2018-May-08 19:30N 34°37' E 135°02'510.0
2018-May-08 19:00N 34°35' E 135°07'2 4.8
2018-May-08 18:30N 34°32' E 135°07'510.2
2018-May-08 18:01N 34°28' E 135°05'611.8
2018-May-08 17:30N 34°22' E 135°02'612.1
2018-May-08 17:00N 34°17' E 134°59'611.7
2018-May-08 16:30N 34°11' E 135°01'3 6.3
2018-May-08 16:00N 34°08' E 134°59'5 9.8
2018-May-08 15:30N 34°03' E 134°59'511.0
2018-May-08 15:00N 33°58' E 134°59'611.2
2018-May-08 14:30N 33°52' E 134°59'610.6
2018-May-08 13:59N 33°47' E 134°60'610.9
2018-May-08 13:29N 33°42' E 135°04'610.7
2018-May-08 12:56N 33°37' E 135°07'611.5
2018-May-08 12:27N 33°32' E 135°11'611.8
2018-May-08 11:55N 33°27' E 135°14'  
2018-May-06 00:22N 31°60' E 134°44'278 6.7
2018-May-04 07:08N 34°17' E 139°33'1 7.4
2018-May-04 06:59N 34°18' E 139°35'44 6.7
2018-May-04 00:31N 34°41' E 140°19'0 1.1
2018-May-04 00:30N 34°41' E 140°19'  

Dump ship's entire track history